EGVO - Odiham
Distance from station: E 5mi, 14km
Updated: 02/20/2018 8:50am
Mostly Cloudy
Mostly Cloudy
 Wind from N
Wind: N 16 mph , 26 km/h
Temperature: 48°F , 9°C
Wind Chill: 42°F , 6°C
Dew Point: 34°F , 1°C
Humidity: 58%
Barometer: 30.15 inHg , 1021 hPa
Clouds: Mostly Cloudy
Visibility: 6 miles , 10 km
Cloud details: Mostly Cloudy 4000 ft
2018/02/20 16:50 EGVO 201650Z 35014KT 9999 BKN040 09/01 Q1021 BLU NOSIG